sensor_id;sensor_type;location;lat;lon;timestamp;P1;durP1;ratioP1;P2;durP2;ratioP2
36745;SDS011;22715;52.182;21.206;2023-04-25T00:00:54;11.75;;;8.82;;
36745;SDS011;22715;52.182;21.206;2023-04-25T00:03:22;11.40;;;9.27;;
36745;SDS011;22715;52.182;21.206;2023-04-25T00:05:50;14.32;;;9.82;;
36745;SDS011;22715;52.182;21.206;2023-04-25T00:08:16;13.73;;;8.73;;
36745;SDS011;22715;52.182;21.206;2023-04-25T00:10:42;12.05;;;8.48;;
36745;SDS011;22715;52.182;21.206;2023-04-25T00:13:07;11.95;;;8.85;;
36745;SDS011;22715;52.182;21.206;2023-04-25T00:15:33;9.65;;;8.70;;
36745;SDS011;22715;52.182;21.206;2023-04-25T00:17:59;9.10;;;7.85;;
36745;SDS011;22715;52.182;21.206;2023-04-25T00:20:24;12.27;;;9.48;;
36745;SDS011;22715;52.182;21.206;2023-04-25T00:22:50;13.23;;;8.95;;
36745;SDS011;22715;52.182;21.206;2023-04-25T00:25:17;12.35;;;9.40;;
36745;SDS011;22715;52.182;21.206;2023-04-25T00:27:44;11.07;;;9.20;;
36745;SDS011;22715;52.182;21.206;2023-04-25T00:30:09;12.43;;;9.02;;
36745;SDS011;22715;52.182;21.206;2023-04-25T00:32:35;11.30;;;8.85;;
36745;SDS011;22715;52.182;21.206;2023-04-25T00:35:00;11.68;;;8.82;;
36745;SDS011;22715;52.182;21.206;2023-04-25T00:37:26;20.05;;;9.27;;
36745;SDS011;22715;52.182;21.206;2023-04-25T00:39:51;13.27;;;7.43;;
36745;SDS011;22715;52.182;21.206;2023-04-25T00:42:18;12.00;;;9.80;;
36745;SDS011;22715;52.182;21.206;2023-04-25T00:44:44;12.30;;;8.30;;
36745;SDS011;22715;52.182;21.206;2023-04-25T00:50:13;10.13;;;8.70;;
36745;SDS011;22715;52.182;21.206;2023-04-25T00:52:39;10.02;;;8.75;;
36745;SDS011;22715;52.182;21.206;2023-04-25T00:55:05;12.25;;;9.27;;
36745;SDS011;22715;52.182;21.206;2023-04-25T00:57:31;12.13;;;9.05;;
36745;SDS011;22715;52.182;21.206;2023-04-25T01:00:06;10.73;;;9.13;;
36745;SDS011;22715;52.182;21.206;2023-04-25T01:02:32;11.57;;;9.82;;
36745;SDS011;22715;52.182;21.206;2023-04-25T01:05:01;12.15;;;9.07;;
36745;SDS011;22715;52.182;21.206;2023-04-25T01:07:26;13.35;;;9.45;;
36745;SDS011;22715;52.182;21.206;2023-04-25T01:09:52;12.05;;;9.25;;
36745;SDS011;22715;52.182;21.206;2023-04-25T01:12:22;10.15;;;8.45;;
36745;SDS011;22715;52.182;21.206;2023-04-25T01:14:56;12.45;;;8.60;;
36745;SDS011;22715;52.182;21.206;2023-04-25T01:17:21;11.95;;;10.75;;
36745;SDS011;22715;52.182;21.206;2023-04-25T01:19:47;13.85;;;9.95;;
36745;SDS011;22715;52.182;21.206;2023-04-25T01:22:14;16.00;;;9.80;;
36745;SDS011;22715;52.182;21.206;2023-04-25T01:24:39;13.65;;;10.07;;
36745;SDS011;22715;52.182;21.206;2023-04-25T01:27:05;15.05;;;10.68;;
36745;SDS011;22715;52.182;21.206;2023-04-25T01:29:31;13.63;;;10.38;;
36745;SDS011;22715;52.182;21.206;2023-04-25T01:31:56;12.93;;;10.85;;
36745;SDS011;22715;52.182;21.206;2023-04-25T01:34:23;13.25;;;9.93;;
36745;SDS011;22715;52.182;21.206;2023-04-25T01:36:49;12.95;;;10.73;;
36745;SDS011;22715;52.182;21.206;2023-04-25T01:39:15;12.45;;;9.95;;
36745;SDS011;22715;52.182;21.206;2023-04-25T01:41:40;16.20;;;11.90;;
36745;SDS011;22715;52.182;21.206;2023-04-25T01:44:06;12.77;;;9.75;;
36745;SDS011;22715;52.182;21.206;2023-04-25T01:46:32;14.63;;;11.13;;
36745;SDS011;22715;52.182;21.206;2023-04-25T01:49:01;14.73;;;10.93;;
36745;SDS011;22715;52.182;21.206;2023-04-25T01:51:26;14.95;;;10.23;;
36745;SDS011;22715;52.182;21.206;2023-04-25T01:53:52;12.95;;;10.35;;
36745;SDS011;22715;52.182;21.206;2023-04-25T01:56:17;14.15;;;11.25;;
36745;SDS011;22715;52.182;21.206;2023-04-25T01:58:43;14.27;;;10.55;;
36745;SDS011;22715;52.182;21.206;2023-04-25T02:01:08;12.93;;;10.48;;
36745;SDS011;22715;52.182;21.206;2023-04-25T02:03:34;14.60;;;10.77;;
36745;SDS011;22715;52.182;21.206;2023-04-25T02:06:00;14.48;;;10.38;;
36745;SDS011;22715;52.182;21.206;2023-04-25T02:08:25;16.40;;;12.75;;
36745;SDS011;22715;52.182;21.206;2023-04-25T02:10:51;21.02;;;11.43;;
36745;SDS011;22715;52.182;21.206;2023-04-25T02:13:17;13.63;;;11.05;;
36745;SDS011;22715;52.182;21.206;2023-04-25T02:15:42;15.95;;;10.95;;
36745;SDS011;22715;52.182;21.206;2023-04-25T02:18:08;17.80;;;11.57;;
36745;SDS011;22715;52.182;21.206;2023-04-25T02:20:37;17.83;;;12.05;;
36745;SDS011;22715;52.182;21.206;2023-04-25T02:23:03;14.85;;;10.95;;
36745;SDS011;22715;52.182;21.206;2023-04-25T02:25:29;16.83;;;11.95;;
36745;SDS011;22715;52.182;21.206;2023-04-25T02:27:54;14.23;;;10.32;;
36745;SDS011;22715;52.182;21.206;2023-04-25T02:30:20;15.10;;;11.48;;
36745;SDS011;22715;52.182;21.206;2023-04-25T02:32:45;13.82;;;10.68;;
36745;SDS011;22715;52.182;21.206;2023-04-25T02:35:11;15.18;;;11.35;;
36745;SDS011;22715;52.182;21.206;2023-04-25T02:37:37;15.05;;;10.43;;
36745;SDS011;22715;52.182;21.206;2023-04-25T02:40:06;14.77;;;11.70;;
36745;SDS011;22715;52.182;21.206;2023-04-25T02:42:32;14.02;;;10.80;;
36745;SDS011;22715;52.182;21.206;2023-04-25T02:44:57;15.77;;;10.30;;
36745;SDS011;22715;52.182;21.206;2023-04-25T02:47:22;14.95;;;10.95;;
36745;SDS011;22715;52.182;21.206;2023-04-25T02:49:48;15.73;;;10.63;;
36745;SDS011;22715;52.182;21.206;2023-04-25T02:52:16;13.55;;;10.27;;
36745;SDS011;22715;52.182;21.206;2023-04-25T02:54:42;14.35;;;11.55;;
36745;SDS011;22715;52.182;21.206;2023-04-25T02:57:07;16.73;;;10.77;;
36745;SDS011;22715;52.182;21.206;2023-04-25T02:59:33;14.43;;;10.95;;
36745;SDS011;22715;52.182;21.206;2023-04-25T03:02:01;18.90;;;10.98;;
36745;SDS011;22715;52.182;21.206;2023-04-25T03:04:36;17.25;;;10.30;;
36745;SDS011;22715;52.182;21.206;2023-04-25T03:07:01;16.65;;;11.57;;
36745;SDS011;22715;52.182;21.206;2023-04-25T03:09:38;12.63;;;9.63;;
36745;SDS011;22715;52.182;21.206;2023-04-25T03:12:03;11.95;;;10.40;;
36745;SDS011;22715;52.182;21.206;2023-04-25T03:14:28;16.92;;;10.23;;
36745;SDS011;22715;52.182;21.206;2023-04-25T03:16:54;17.75;;;9.90;;
36745;SDS011;22715;52.182;21.206;2023-04-25T03:19:19;17.35;;;12.00;;
36745;SDS011;22715;52.182;21.206;2023-04-25T03:21:45;20.25;;;12.07;;
36745;SDS011;22715;52.182;21.206;2023-04-25T03:24:10;19.52;;;11.80;;
36745;SDS011;22715;52.182;21.206;2023-04-25T03:26:38;16.02;;;11.32;;
36745;SDS011;22715;52.182;21.206;2023-04-25T03:29:04;14.15;;;10.00;;
36745;SDS011;22715;52.182;21.206;2023-04-25T03:31:32;12.80;;;10.48;;
36745;SDS011;22715;52.182;21.206;2023-04-25T03:33:57;13.02;;;9.98;;
36745;SDS011;22715;52.182;21.206;2023-04-25T03:36:23;11.73;;;8.40;;
36745;SDS011;22715;52.182;21.206;2023-04-25T03:38:48;13.45;;;10.80;;
36745;SDS011;22715;52.182;21.206;2023-04-25T03:41:15;14.40;;;9.55;;
36745;SDS011;22715;52.182;21.206;2023-04-25T03:43:41;11.65;;;8.63;;
36745;SDS011;22715;52.182;21.206;2023-04-25T03:46:06;14.10;;;8.10;;
36745;SDS011;22715;52.182;21.206;2023-04-25T03:48:32;11.45;;;7.78;;
36745;SDS011;22715;52.182;21.206;2023-04-25T03:50:57;12.05;;;9.13;;
36745;SDS011;22715;52.182;21.206;2023-04-25T03:53:22;11.38;;;7.78;;
36745;SDS011;22715;52.182;21.206;2023-04-25T03:55:48;15.20;;;8.98;;
36745;SDS011;22715;52.182;21.206;2023-04-25T04:00:41;11.27;;;8.27;;
36745;SDS011;22715;52.182;21.206;2023-04-25T04:03:07;11.35;;;7.75;;
36745;SDS011;22715;52.182;21.206;2023-04-25T04:05:33;12.77;;;8.00;;
36745;SDS011;22715;52.182;21.206;2023-04-25T04:08:00;9.65;;;8.32;;
36745;SDS011;22715;52.182;21.206;2023-04-25T04:10:26;11.20;;;7.30;;
36745;SDS011;22715;52.182;21.206;2023-04-25T04:12:51;10.05;;;7.65;;
36745;SDS011;22715;52.182;21.206;2023-04-25T04:15:17;10.68;;;7.55;;
36745;SDS011;22715;52.182;21.206;2023-04-25T04:17:43;11.65;;;8.50;;
36745;SDS011;22715;52.182;21.206;2023-04-25T04:20:08;10.65;;;7.53;;
36745;SDS011;22715;52.182;21.206;2023-04-25T04:22:34;11.27;;;7.25;;
36745;SDS011;22715;52.182;21.206;2023-04-25T04:24:59;11.70;;;8.23;;
36745;SDS011;22715;52.182;21.206;2023-04-25T04:27:25;9.20;;;6.95;;
36745;SDS011;22715;52.182;21.206;2023-04-25T04:29:50;10.20;;;7.05;;
36745;SDS011;22715;52.182;21.206;2023-04-25T04:32:17;11.63;;;7.45;;
36745;SDS011;22715;52.182;21.206;2023-04-25T04:34:42;9.43;;;6.63;;
36745;SDS011;22715;52.182;21.206;2023-04-25T04:37:08;9.82;;;6.07;;
36745;SDS011;22715;52.182;21.206;2023-04-25T04:39:35;11.43;;;7.20;;
36745;SDS011;22715;52.182;21.206;2023-04-25T04:42:11;9.80;;;6.72;;
36745;SDS011;22715;52.182;21.206;2023-04-25T04:47:29;9.65;;;6.03;;
36745;SDS011;22715;52.182;21.206;2023-04-25T04:49:57;8.63;;;7.60;;
36745;SDS011;22715;52.182;21.206;2023-04-25T04:52:22;9.20;;;6.30;;
36745;SDS011;22715;52.182;21.206;2023-04-25T04:54:47;8.60;;;6.95;;
36745;SDS011;22715;52.182;21.206;2023-04-25T04:57:13;8.55;;;6.25;;
36745;SDS011;22715;52.182;21.206;2023-04-25T04:59:46;7.70;;;6.45;;
36745;SDS011;22715;52.182;21.206;2023-04-25T05:02:11;7.38;;;5.75;;
36745;SDS011;22715;52.182;21.206;2023-04-25T05:04:36;8.65;;;6.82;;
36745;SDS011;22715;52.182;21.206;2023-04-25T05:07:02;11.25;;;6.57;;
36745;SDS011;22715;52.182;21.206;2023-04-25T05:09:27;7.13;;;6.38;;
36745;SDS011;22715;52.182;21.206;2023-04-25T05:11:52;8.25;;;6.63;;
36745;SDS011;22715;52.182;21.206;2023-04-25T05:14:18;9.43;;;6.15;;
36745;SDS011;22715;52.182;21.206;2023-04-25T05:16:43;8.25;;;6.22;;
36745;SDS011;22715;52.182;21.206;2023-04-25T05:19:09;10.05;;;5.97;;
36745;SDS011;22715;52.182;21.206;2023-04-25T05:21:34;12.30;;;6.53;;
36745;SDS011;22715;52.182;21.206;2023-04-25T05:24:02;8.40;;;5.80;;
36745;SDS011;22715;52.182;21.206;2023-04-25T05:26:29;7.80;;;5.35;;
36745;SDS011;22715;52.182;21.206;2023-04-25T05:28:59;6.78;;;5.43;;
36745;SDS011;22715;52.182;21.206;2023-04-25T05:31:24;6.78;;;5.32;;
36745;SDS011;22715;52.182;21.206;2023-04-25T05:33:50;9.85;;;6.00;;
36745;SDS011;22715;52.182;21.206;2023-04-25T05:36:15;7.35;;;6.15;;
36745;SDS011;22715;52.182;21.206;2023-04-25T05:38:41;6.15;;;5.53;;
36745;SDS011;22715;52.182;21.206;2023-04-25T05:41:06;7.85;;;6.18;;
36745;SDS011;22715;52.182;21.206;2023-04-25T05:43:32;8.93;;;5.32;;
36745;SDS011;22715;52.182;21.206;2023-04-25T05:45:57;8.40;;;6.13;;
36745;SDS011;22715;52.182;21.206;2023-04-25T05:48:25;8.05;;;5.82;;
36745;SDS011;22715;52.182;21.206;2023-04-25T05:50:50;6.45;;;5.60;;
36745;SDS011;22715;52.182;21.206;2023-04-25T05:53:16;6.22;;;5.15;;
36745;SDS011;22715;52.182;21.206;2023-04-25T05:55:42;7.47;;;6.78;;
36745;SDS011;22715;52.182;21.206;2023-04-25T05:58:07;6.72;;;5.93;;
36745;SDS011;22715;52.182;21.206;2023-04-25T06:00:39;7.57;;;5.90;;
36745;SDS011;22715;52.182;21.206;2023-04-25T06:03:06;7.55;;;5.68;;
36745;SDS011;22715;52.182;21.206;2023-04-25T06:05:34;6.78;;;5.00;;
36745;SDS011;22715;52.182;21.206;2023-04-25T06:07:59;6.10;;;5.25;;
36745;SDS011;22715;52.182;21.206;2023-04-25T06:10:25;7.22;;;6.45;;
36745;SDS011;22715;52.182;21.206;2023-04-25T06:12:50;6.53;;;5.20;;
36745;SDS011;22715;52.182;21.206;2023-04-25T06:15:15;6.68;;;5.97;;
36745;SDS011;22715;52.182;21.206;2023-04-25T06:17:41;9.10;;;6.45;;
36745;SDS011;22715;52.182;21.206;2023-04-25T06:20:07;5.85;;;5.18;;
36745;SDS011;22715;52.182;21.206;2023-04-25T06:22:33;6.63;;;6.03;;
36745;SDS011;22715;52.182;21.206;2023-04-25T06:24:58;7.07;;;5.60;;
36745;SDS011;22715;52.182;21.206;2023-04-25T06:27:25;6.72;;;6.05;;
36745;SDS011;22715;52.182;21.206;2023-04-25T06:29:50;7.38;;;5.80;;
36745;SDS011;22715;52.182;21.206;2023-04-25T06:32:18;6.68;;;5.65;;
36745;SDS011;22715;52.182;21.206;2023-04-25T06:34:44;6.43;;;5.63;;
36745;SDS011;22715;52.182;21.206;2023-04-25T06:37:10;8.15;;;6.50;;
36745;SDS011;22715;52.182;21.206;2023-04-25T06:39:35;8.65;;;6.50;;
36745;SDS011;22715;52.182;21.206;2023-04-25T06:42:01;6.95;;;5.97;;
36745;SDS011;22715;52.182;21.206;2023-04-25T06:44:26;7.72;;;6.93;;
36745;SDS011;22715;52.182;21.206;2023-04-25T06:46:54;8.88;;;6.32;;
36745;SDS011;22715;52.182;21.206;2023-04-25T06:49:19;7.75;;;6.97;;
36745;SDS011;22715;52.182;21.206;2023-04-25T06:51:44;8.30;;;6.68;;
36745;SDS011;22715;52.182;21.206;2023-04-25T06:54:10;8.18;;;7.38;;
36745;SDS011;22715;52.182;21.206;2023-04-25T06:56:35;10.05;;;7.30;;
36745;SDS011;22715;52.182;21.206;2023-04-25T06:59:00;8.57;;;7.68;;
36745;SDS011;22715;52.182;21.206;2023-04-25T07:01:26;10.68;;;7.15;;
36745;SDS011;22715;52.182;21.206;2023-04-25T07:03:51;10.48;;;8.70;;
36745;SDS011;22715;52.182;21.206;2023-04-25T07:06:16;7.97;;;6.75;;
36745;SDS011;22715;52.182;21.206;2023-04-25T07:08:42;11.25;;;7.22;;
36745;SDS011;22715;52.182;21.206;2023-04-25T07:11:08;12.90;;;8.20;;
36745;SDS011;22715;52.182;21.206;2023-04-25T07:13:33;9.05;;;8.15;;
36745;SDS011;22715;52.182;21.206;2023-04-25T07:15:59;7.93;;;7.13;;
36745;SDS011;22715;52.182;21.206;2023-04-25T07:18:24;7.35;;;6.13;;
36745;SDS011;22715;52.182;21.206;2023-04-25T07:20:52;8.98;;;6.40;;
36745;SDS011;22715;52.182;21.206;2023-04-25T07:23:17;6.53;;;4.97;;
36745;SDS011;22715;52.182;21.206;2023-04-25T07:25:43;7.68;;;6.15;;
36745;SDS011;22715;52.182;21.206;2023-04-25T07:28:08;6.85;;;5.35;;
36745;SDS011;22715;52.182;21.206;2023-04-25T07:30:33;8.07;;;6.57;;
36745;SDS011;22715;52.182;21.206;2023-04-25T07:33:00;8.43;;;5.93;;
36745;SDS011;22715;52.182;21.206;2023-04-25T07:35:25;6.22;;;5.63;;
36745;SDS011;22715;52.182;21.206;2023-04-25T07:37:50;10.00;;;7.53;;
36745;SDS011;22715;52.182;21.206;2023-04-25T07:40:16;8.23;;;6.22;;
36745;SDS011;22715;52.182;21.206;2023-04-25T07:42:41;8.50;;;6.80;;
36745;SDS011;22715;52.182;21.206;2023-04-25T07:45:07;9.57;;;7.40;;
36745;SDS011;22715;52.182;21.206;2023-04-25T07:47:32;8.18;;;7.15;;
36745;SDS011;22715;52.182;21.206;2023-04-25T07:49:57;8.68;;;7.78;;
36745;SDS011;22715;52.182;21.206;2023-04-25T07:52:23;12.27;;;11.10;;
36745;SDS011;22715;52.182;21.206;2023-04-25T07:54:48;9.57;;;8.07;;
36745;SDS011;22715;52.182;21.206;2023-04-25T07:57:14;8.30;;;7.28;;
36745;SDS011;22715;52.182;21.206;2023-04-25T07:59:39;7.25;;;6.45;;
36745;SDS011;22715;52.182;21.206;2023-04-25T08:02:05;10.20;;;7.47;;
36745;SDS011;22715;52.182;21.206;2023-04-25T08:04:30;6.70;;;5.97;;
36745;SDS011;22715;52.182;21.206;2023-04-25T08:06:55;7.88;;;7.07;;
36745;SDS011;22715;52.182;21.206;2023-04-25T08:09:21;7.10;;;6.40;;
36745;SDS011;22715;52.182;21.206;2023-04-25T08:11:46;6.82;;;6.07;;
36745;SDS011;22715;52.182;21.206;2023-04-25T08:14:12;6.43;;;5.82;;
36745;SDS011;22715;52.182;21.206;2023-04-25T08:16:37;6.32;;;5.32;;
36745;SDS011;22715;52.182;21.206;2023-04-25T08:19:03;7.72;;;5.97;;
36745;SDS011;22715;52.182;21.206;2023-04-25T08:21:28;7.05;;;5.85;;
36745;SDS011;22715;52.182;21.206;2023-04-25T08:23:54;8.30;;;6.50;;
36745;SDS011;22715;52.182;21.206;2023-04-25T08:26:19;7.57;;;5.45;;
36745;SDS011;22715;52.182;21.206;2023-04-25T08:28:45;7.15;;;5.47;;
36745;SDS011;22715;52.182;21.206;2023-04-25T08:31:11;8.75;;;6.70;;
36745;SDS011;22715;52.182;21.206;2023-04-25T08:33:36;7.35;;;5.63;;
36745;SDS011;22715;52.182;21.206;2023-04-25T08:36:01;7.95;;;5.50;;
36745;SDS011;22715;52.182;21.206;2023-04-25T08:38:27;6.05;;;5.18;;
36745;SDS011;22715;52.182;21.206;2023-04-25T08:40:52;5.70;;;5.13;;
36745;SDS011;22715;52.182;21.206;2023-04-25T08:43:22;7.13;;;5.15;;
36745;SDS011;22715;52.182;21.206;2023-04-25T08:45:56;5.53;;;4.90;;
36745;SDS011;22715;52.182;21.206;2023-04-25T08:48:23;6.05;;;5.20;;
36745;SDS011;22715;52.182;21.206;2023-04-25T08:50:50;7.80;;;6.45;;
36745;SDS011;22715;52.182;21.206;2023-04-25T08:53:16;10.80;;;9.10;;
36745;SDS011;22715;52.182;21.206;2023-04-25T08:55:43;11.73;;;8.48;;
36745;SDS011;22715;52.182;21.206;2023-04-25T08:58:09;13.38;;;9.40;;
36745;SDS011;22715;52.182;21.206;2023-04-25T09:00:35;10.93;;;8.93;;
36745;SDS011;22715;52.182;21.206;2023-04-25T09:03:04;9.88;;;8.63;;
36745;SDS011;22715;52.182;21.206;2023-04-25T09:05:29;9.77;;;8.77;;
36745;SDS011;22715;52.182;21.206;2023-04-25T09:07:55;9.35;;;7.45;;
36745;SDS011;22715;52.182;21.206;2023-04-25T09:10:21;8.82;;;5.47;;
36745;SDS011;22715;52.182;21.206;2023-04-25T09:13:01;7.43;;;5.25;;
36745;SDS011;22715;52.182;21.206;2023-04-25T09:15:26;6.85;;;4.88;;
36745;SDS011;22715;52.182;21.206;2023-04-25T09:17:56;4.28;;;3.80;;
36745;SDS011;22715;52.182;21.206;2023-04-25T09:20:21;4.93;;;4.47;;
36745;SDS011;22715;52.182;21.206;2023-04-25T09:22:46;5.00;;;3.72;;
36745;SDS011;22715;52.182;21.206;2023-04-25T09:25:12;10.40;;;3.90;;
36745;SDS011;22715;52.182;21.206;2023-04-25T09:27:49;6.22;;;4.28;;
36745;SDS011;22715;52.182;21.206;2023-04-25T09:30:15;4.82;;;4.30;;
36745;SDS011;22715;52.182;21.206;2023-04-25T09:32:41;5.88;;;4.90;;
36745;SDS011;22715;52.182;21.206;2023-04-25T09:35:07;5.22;;;4.50;;
36745;SDS011;22715;52.182;21.206;2023-04-25T09:37:33;7.68;;;5.53;;
36745;SDS011;22715;52.182;21.206;2023-04-25T09:39:59;6.60;;;5.65;;
36745;SDS011;22715;52.182;21.206;2023-04-25T09:42:25;6.30;;;5.22;;
36745;SDS011;22715;52.182;21.206;2023-04-25T09:44:52;7.53;;;5.72;;
36745;SDS011;22715;52.182;21.206;2023-04-25T09:47:18;5.57;;;4.70;;
36745;SDS011;22715;52.182;21.206;2023-04-25T09:49:46;10.13;;;6.65;;
36745;SDS011;22715;52.182;21.206;2023-04-25T09:52:15;7.60;;;5.38;;
36745;SDS011;22715;52.182;21.206;2023-04-25T09:54:41;9.40;;;5.47;;
36745;SDS011;22715;52.182;21.206;2023-04-25T09:57:10;6.25;;;4.95;;
36745;SDS011;22715;52.182;21.206;2023-04-25T09:59:38;5.47;;;4.70;;
36745;SDS011;22715;52.182;21.206;2023-04-25T10:02:04;5.85;;;4.82;;
36745;SDS011;22715;52.182;21.206;2023-04-25T10:04:30;5.82;;;5.22;;
36745;SDS011;22715;52.182;21.206;2023-04-25T10:06:56;6.75;;;5.70;;
36745;SDS011;22715;52.182;21.206;2023-04-25T10:09:21;5.75;;;5.05;;
36745;SDS011;22715;52.182;21.206;2023-04-25T10:11:50;12.07;;;6.03;;
36745;SDS011;22715;52.182;21.206;2023-04-25T10:14:16;8.93;;;6.72;;
36745;SDS011;22715;52.182;21.206;2023-04-25T10:16:41;8.60;;;6.05;;
36745;SDS011;22715;52.182;21.206;2023-04-25T10:19:07;9.32;;;5.82;;
36745;SDS011;22715;52.182;21.206;2023-04-25T10:21:33;7.10;;;6.40;;
36745;SDS011;22715;52.182;21.206;2023-04-25T10:23:59;8.80;;;6.55;;
36745;SDS011;22715;52.182;21.206;2023-04-25T10:26:25;9.43;;;6.35;;
36745;SDS011;22715;52.182;21.206;2023-04-25T10:29:00;10.23;;;7.97;;
36745;SDS011;22715;52.182;21.206;2023-04-25T10:31:26;8.93;;;7.13;;
36745;SDS011;22715;52.182;21.206;2023-04-25T10:33:51;7.82;;;6.22;;
36745;SDS011;22715;52.182;21.206;2023-04-25T10:36:18;8.68;;;6.75;;
36745;SDS011;22715;52.182;21.206;2023-04-25T10:38:45;9.32;;;6.07;;
36745;SDS011;22715;52.182;21.206;2023-04-25T10:41:13;10.68;;;7.43;;
36745;SDS011;22715;52.182;21.206;2023-04-25T10:43:42;7.72;;;6.50;;
36745;SDS011;22715;52.182;21.206;2023-04-25T10:46:14;9.63;;;7.72;;
36745;SDS011;22715;52.182;21.206;2023-04-25T10:48:43;10.88;;;7.88;;
36745;SDS011;22715;52.182;21.206;2023-04-25T10:54:06;9.48;;;7.35;;
36745;SDS011;22715;52.182;21.206;2023-04-25T10:56:33;10.68;;;7.15;;
36745;SDS011;22715;52.182;21.206;2023-04-25T10:59:12;10.82;;;8.00;;
36745;SDS011;22715;52.182;21.206;2023-04-25T11:01:38;10.80;;;6.82;;
36745;SDS011;22715;52.182;21.206;2023-04-25T11:04:04;10.90;;;7.70;;
36745;SDS011;22715;52.182;21.206;2023-04-25T11:08:56;12.68;;;9.50;;
36745;SDS011;22715;52.182;21.206;2023-04-25T11:11:22;15.60;;;9.77;;
36745;SDS011;22715;52.182;21.206;2023-04-25T11:13:47;12.15;;;10.02;;
36745;SDS011;22715;52.182;21.206;2023-04-25T11:16:13;13.13;;;8.80;;
36745;SDS011;22715;52.182;21.206;2023-04-25T11:18:40;11.20;;;10.02;;
36745;SDS011;22715;52.182;21.206;2023-04-25T11:21:06;10.75;;;9.50;;
36745;SDS011;22715;52.182;21.206;2023-04-25T11:23:31;12.90;;;10.52;;
36745;SDS011;22715;52.182;21.206;2023-04-25T11:25:56;12.48;;;11.00;;
36745;SDS011;22715;52.182;21.206;2023-04-25T11:28:22;11.00;;;9.43;;
36745;SDS011;22715;52.182;21.206;2023-04-25T11:30:48;10.73;;;8.73;;
36745;SDS011;22715;52.182;21.206;2023-04-25T11:33:15;11.20;;;8.93;;
36745;SDS011;22715;52.182;21.206;2023-04-25T11:35:40;10.32;;;8.93;;
36745;SDS011;22715;52.182;21.206;2023-04-25T11:38:06;11.23;;;9.48;;
36745;SDS011;22715;52.182;21.206;2023-04-25T11:40:31;12.70;;;9.32;;
36745;SDS011;22715;52.182;21.206;2023-04-25T11:42:57;11.30;;;10.10;;
36745;SDS011;22715;52.182;21.206;2023-04-25T11:45:24;9.98;;;8.98;;
36745;SDS011;22715;52.182;21.206;2023-04-25T11:47:50;10.27;;;8.95;;
36745;SDS011;22715;52.182;21.206;2023-04-25T11:50:15;10.10;;;9.10;;
36745;SDS011;22715;52.182;21.206;2023-04-25T11:52:41;10.35;;;9.18;;
36745;SDS011;22715;52.182;21.206;2023-04-25T11:55:08;11.10;;;8.10;;
36745;SDS011;22715;52.182;21.206;2023-04-25T11:57:33;9.32;;;7.80;;
36745;SDS011;22715;52.182;21.206;2023-04-25T12:00:06;9.07;;;7.13;;
36745;SDS011;22715;52.182;21.206;2023-04-25T12:02:45;8.30;;;6.75;;
36745;SDS011;22715;52.182;21.206;2023-04-25T12:05:11;7.82;;;6.57;;
36745;SDS011;22715;52.182;21.206;2023-04-25T12:07:36;7.03;;;6.25;;
36745;SDS011;22715;52.182;21.206;2023-04-25T12:10:13;5.55;;;4.75;;
36745;SDS011;22715;52.182;21.206;2023-04-25T12:12:43;6.65;;;5.38;;
36745;SDS011;22715;52.182;21.206;2023-04-25T12:15:26;6.50;;;5.87;;
36745;SDS011;22715;52.182;21.206;2023-04-25T12:17:52;7.30;;;6.22;;
36745;SDS011;22715;52.182;21.206;2023-04-25T12:20:20;5.82;;;5.25;;
36745;SDS011;22715;52.182;21.206;2023-04-25T12:22:46;9.00;;;5.85;;
36745;SDS011;22715;52.182;21.206;2023-04-25T12:25:33;6.57;;;5.68;;
36745;SDS011;22715;52.182;21.206;2023-04-25T12:28:19;5.57;;;5.07;;
36745;SDS011;22715;52.182;21.206;2023-04-25T12:31:01;7.00;;;6.30;;
36745;SDS011;22715;52.182;21.206;2023-04-25T12:33:27;7.78;;;6.13;;
36745;SDS011;22715;52.182;21.206;2023-04-25T12:35:53;6.18;;;5.45;;
36745;SDS011;22715;52.182;21.206;2023-04-25T12:38:25;6.80;;;6.15;;
36745;SDS011;22715;52.182;21.206;2023-04-25T12:40:51;7.85;;;6.15;;
36745;SDS011;22715;52.182;21.206;2023-04-25T12:43:16;5.63;;;5.03;;
36745;SDS011;22715;52.182;21.206;2023-04-25T12:45:42;6.03;;;5.53;;
36745;SDS011;22715;52.182;21.206;2023-04-25T12:48:08;6.97;;;6.22;;
36745;SDS011;22715;52.182;21.206;2023-04-25T12:50:33;7.72;;;6.40;;
36745;SDS011;22715;52.182;21.206;2023-04-25T12:52:58;6.75;;;5.45;;
36745;SDS011;22715;52.182;21.206;2023-04-25T12:55:24;7.35;;;5.68;;
36745;SDS011;22715;52.182;21.206;2023-04-25T12:57:49;8.18;;;6.20;;
36745;SDS011;22715;52.182;21.206;2023-04-25T13:00:15;7.85;;;5.38;;
36745;SDS011;22715;52.182;21.206;2023-04-25T13:02:43;5.57;;;5.07;;
36745;SDS011;22715;52.182;21.206;2023-04-25T13:05:08;7.70;;;6.18;;
36745;SDS011;22715;52.182;21.206;2023-04-25T13:07:34;7.38;;;5.43;;
36745;SDS011;22715;52.182;21.206;2023-04-25T13:09:59;6.65;;;5.88;;
36745;SDS011;22715;52.182;21.206;2023-04-25T13:12:27;6.68;;;5.13;;
36745;SDS011;22715;52.182;21.206;2023-04-25T13:14:52;6.28;;;4.57;;
36745;SDS011;22715;52.182;21.206;2023-04-25T13:17:17;7.57;;;5.32;;
36745;SDS011;22715;52.182;21.206;2023-04-25T13:19:43;4.47;;;4.07;;
36745;SDS011;22715;52.182;21.206;2023-04-25T13:22:11;7.82;;;5.28;;
36745;SDS011;22715;52.182;21.206;2023-04-25T13:24:36;6.38;;;4.13;;
36745;SDS011;22715;52.182;21.206;2023-04-25T13:27:01;6.03;;;4.35;;
36745;SDS011;22715;52.182;21.206;2023-04-25T13:29:27;4.38;;;3.90;;
36745;SDS011;22715;52.182;21.206;2023-04-25T13:31:52;5.30;;;3.90;;
36745;SDS011;22715;52.182;21.206;2023-04-25T13:34:17;5.82;;;4.13;;
36745;SDS011;22715;52.182;21.206;2023-04-25T13:36:43;8.52;;;4.25;;
36745;SDS011;22715;52.182;21.206;2023-04-25T13:39:08;4.35;;;3.53;;
36745;SDS011;22715;52.182;21.206;2023-04-25T13:41:38;6.50;;;3.50;;
36745;SDS011;22715;52.182;21.206;2023-04-25T13:44:03;3.17;;;2.85;;
36745;SDS011;22715;52.182;21.206;2023-04-25T13:46:29;3.03;;;2.75;;
36745;SDS011;22715;52.182;21.206;2023-04-25T13:48:54;3.92;;;2.25;;
36745;SDS011;22715;52.182;21.206;2023-04-25T13:51:20;2.42;;;2.10;;
36745;SDS011;22715;52.182;21.206;2023-04-25T13:53:46;2.88;;;2.45;;
36745;SDS011;22715;52.182;21.206;2023-04-25T13:56:12;2.45;;;2.13;;
36745;SDS011;22715;52.182;21.206;2023-04-25T13:58:37;3.30;;;2.30;;
36745;SDS011;22715;52.182;21.206;2023-04-25T14:01:05;2.78;;;2.15;;
36745;SDS011;22715;52.182;21.206;2023-04-25T14:03:31;4.22;;;2.10;;
36745;SDS011;22715;52.182;21.206;2023-04-25T14:05:56;2.55;;;2.20;;
36745;SDS011;22715;52.182;21.206;2023-04-25T14:08:22;2.90;;;2.22;;
36745;SDS011;22715;52.182;21.206;2023-04-25T14:10:47;2.90;;;1.80;;
36745;SDS011;22715;52.182;21.206;2023-04-25T14:13:13;2.40;;;2.00;;
36745;SDS011;22715;52.182;21.206;2023-04-25T14:15:41;2.17;;;1.95;;
36745;SDS011;22715;52.182;21.206;2023-04-25T14:18:06;1.88;;;1.63;;
36745;SDS011;22715;52.182;21.206;2023-04-25T14:20:32;5.50;;;1.52;;
36745;SDS011;22715;52.182;21.206;2023-04-25T14:23:08;1.63;;;1.40;;
36745;SDS011;22715;52.182;21.206;2023-04-25T14:25:49;3.53;;;1.98;;
36745;SDS011;22715;52.182;21.206;2023-04-25T14:28:18;1.58;;;1.40;;
36745;SDS011;22715;52.182;21.206;2023-04-25T14:30:43;2.17;;;1.67;;
36745;SDS011;22715;52.182;21.206;2023-04-25T14:33:08;3.53;;;1.70;;
36745;SDS011;22715;52.182;21.206;2023-04-25T14:35:36;2.22;;;1.52;;